Detall de PIREP

Printer-friendly versionPDF version

[2014/02/22 10:57:00]
Flight IATA:CT1004
Pilot Number:012
Company ICAO:CAT
Aircraft Type:C750/F
PAX:4
Departing Airport: LPFR
Destination Airport: LEBL
Alternate Airport:LEPA
Online: VATSIM
Route:TUPIX DCT NAPES R47 ONUBA UN747 KUKAL UT245 MAMIS UM985 SOPET UN608 MATEX
Flight Level:F430
No Slew and time accel
No pause
Crash detect
Detect pilot in Cockpit between each 30 and 45 minutes
10:57 Zero fuel Weight: 22696 Lbs, Fuel Weight: 5083 Lbs
10:57 VATSIM:LPFR 221030Z 18004KT 130V220 CAVOK 13/07 Q1028
10:57 VATSIM:LEBL 221030Z 33012KT 270V350 9999 FEW025 11/M00 Q1022 NOSIG
10:57 VOICE CATALONIAN / MWC 2014 BARCELONA CHARTER
10:58 Parking Brakes off
11:02 Take-off
11:02 Take off Weight: 27695 Lbs
11:02 Wind: 172º @ 004 Knots Heading: 278º
11:02 POS N37º 00´ 55´´ W007º 58´ 23´´
11:02 Gear Up: 158 Knots
11:02 TOC
11:02 Fuel Weight: 4997 Lb
11:02 Flaps:3 at 160 Knots
11:02 TOD
11:02 Fuel Weight: 4994 Lb
11:02 Flaps:2 at 174 Knots
11:03 Flaps:0 at 163 Knots
11:14 TOC
11:14 Fuel Weight: 4420 Lb
11:17 Wind:270º@036 Knots Heading: 076º Ground Speed: 524 Knots Altitude 49235 ft
11:32 Wind:270º@027 Knots Heading: 085º Ground Speed: 503 Knots Altitude 51417 ft
11:47 Wind:263º@030 Knots Heading: 050º Ground Speed: 525 Knots Altitude 51374 ft
11:59 TOD
11:59 Fuel Weight: 3599 Lb
12:02 Wind:304º@032 Knots Heading: 053º Ground Speed: 489 Knots Altitude 36925 ft
12:17 Wind:307º@013 Knots Heading: 027º Ground Speed: 248 Knots Altitude 3992 ft
12:18 Flaps:2 at 222 Knots
12:18 Flaps:3 at 215 Knots
12:18 Flaps:4 at 198 Knots
12:18 Gear Down: 197 Knots
12:19 Flaps:5 at 169 Knots
12:19 TouchDown:Rate -229 ft/min Speed: 119 Knots
12:19 Flaps:3 at 54 Knots
12:19 Flaps:0 at 55 Knots
12:19 VATSIM:LEBL 221200Z 31003KT 240V360 9999 FEW025 13/04 Q1022 NOSIG
12:20 Land
12:20 Wind:298º@003 Knots
12:20 Heading: 242º
12:20 Flight Duration: 01:18
12:20 Landing Weight: 26127 Lbs
12:20 POS N41º 17´ 53´´ E002º 04´ 54´´
12:21 Parking brakes on
12:21 Block to Block Duration: 01:23
12:21 Final Fuel: 3421 Lbls
12:21 Spent Fuel: 1662 Lbls
12:21 Flight Length: 592 NM
12:21 TOD Land Length: 122 NM

Exportar CSV

Powered by Drupal - Modified by Danger4k